KMEM/MEM METAR and TAF weather

Enter ICAO airport designator
Station Type Date Time Source
KMEM METAR 2022/09/26 09:54 UTC NOAA

KMEM 260954Z 32004KT 10SM CLR 17/09 A3000 RMK AO2 SLP153 T01720089 $


Station Type Date Time Source
KMEM Decoded METAR 2022/09/26 09:54 UTC NOAA

MEMPHIS INTERNATIONAL AIRPORT , TN, United States (KMEM) 35-02N 089-59W 86M
Sep 26, 2022 - 05:54 AM EDT / 2022.09.26 0954 UTC
Wind: from the NW (320 degrees) at 5 MPH (4 KT):0
Visibility: 10 mile(s):0
Sky conditions: clear
Temperature: 63.0 F (17.2 C)
Dew Point: 48.0 F (8.9 C)
Relative Humidity: 58%
Pressure (altimeter): 30 in. Hg (1015 hPa)
ob: KMEM 260954Z 32004KT 10SM CLR 17/09 A3000 RMK AO2 SLP153 T01720089
cycle: 10

Station Type Date Time Source
KMEM TAF 2022/09/26 09:09 UTC NOAA

TAF
AMD KMEM 260906Z 2609/2712 35006KT P6SM SKC
FM261500 34011G18KT P6SM SKC
FM270200 01005KT P6SM SKC
FM271000 06004KT P6SM SKC

Example: see airport list